Stunt Ranch Reserve, Santa Monica Mtns, California Weather observations

Data are for 10 minute period ending at time listed.
 Day   Time   Solar   Ave.   Ave.  Ave.  Vector  Max.   Baro.   Total    
  of    of     Rad.   Air    Rel.  Wind   Wind   Wind  Press.  Precip.   
Year   Day            Temp.  Hum.  Speed  Dir.   Gust                    
2017   (PST)  Kw/m2    F      %     mph   deg.    mph    mb.     in.     
-------------------------------------------------------------------------
  15   20:10   0.00   49.7    92    2.1   275     3.8   971.2    0.00 
  15   20:20   0.00   49.8    92    1.3   296     3.0   971.2    0.00 
  15   20:30   0.00   50.0    92    1.4   294     3.0   971.2    0.00 
  15   20:40   0.00   50.4    92    0.1   318     0.7   971.2    0.00 
  15   20:50   0.00   50.3    91    1.8   231     3.3   971.2    0.00 
  15   21:00   0.00   50.3    91    1.7   258     3.1   971.2    0.00 
  15   21:10   0.00   50.3    91    0.6   254     1.2   971.2    0.00 
  15   21:20   0.00   50.0    91    0.7   287     2.2   971.2    0.00 
  15   21:30   0.00   49.8    92    1.3    96     2.6   971.2    0.00 
  15   21:40   0.00   49.7    92    1.0    91     2.3   971.2    0.00 
  15   21:50   0.00   49.8    91    0.7   313     2.0   971.2    0.00 
  15   22:00   0.00   50.1    91    0.7   280     1.8   971.2    0.00 
  15   22:10   0.00   50.1    89    2.3   150     4.5   971.2    0.00 
  15   22:20   0.00   50.3    86    3.0   123     5.6   971.2    0.00 
  15   22:30   0.00   50.2    84    0.8   159     2.4   971.2    0.00 
  15   22:40   0.00   50.0    86    0.7   273     2.0   971.2    0.00 
  15   22:50   0.00   49.6    86    2.0   304     4.2   971.2    0.00 
  15   23:00   0.00   48.7    88    2.0   286     4.2   971.2    0.00 
  15   23:10   0.00   48.9    90    1.1   272     2.9   971.2    0.00 
  15   23:20   0.00   49.1    89    1.7   236     2.9   971.2    0.00 
  15   23:30   0.00   48.6    89    0.7   340     3.1   971.2    0.00 
  15   23:40   0.00   48.0    91    1.1   226     2.4   971.2    0.00 
  15   23:50   0.00   47.6    92    0.7    47     2.0   971.2    0.00 
  16    0:00   0.00   47.0    92    1.2   120     2.8   971.2    0.00 
  16    0:10   0.00   46.7    93    2.7   126     3.8   970.9    0.00 
  16    0:20   0.00   47.0    93    2.4   131     3.5   970.9    0.00 
  16    0:30   0.00   47.3    93    0.5    92     2.0   970.9    0.00 
  16    0:40   0.00   47.0    93    1.2   129     2.9   970.9    0.00 
  16    0:50   0.00   47.1    93    2.1   168     3.4   970.9    0.00 
  16    1:00   0.00   47.5    93    1.6   167     3.2   970.9    0.00 
  16    1:10   0.00   47.9    93    2.4   151     3.7   970.5    0.00 
  16    1:20   0.00   48.0    93    0.5   138     2.2   970.5    0.00 
  16    1:30   0.00   47.8    93    0.5   151     1.8   970.5    0.00 
  16    1:40   0.00   48.1    93    0.7   295     1.6   970.5    0.00 
  16    1:50   0.00   48.3    93    0.6   254     1.8   970.5    0.00 
  16    2:00   0.00   47.6    92    1.5   274     2.8   970.9    0.00 
  16    2:10   0.00   47.2    93    0.2   157     1.8   970.9    0.00 
  16    2:20   0.00   47.3    93    1.8   126     3.7   970.9    0.00 
  16    2:30   0.00   46.9    93    1.8   162     3.5   970.5    0.00 
  16    2:40   0.00   46.9    93    0.8   170     2.9   970.5    0.00 
  16    2:50   0.00   47.3    93    0.4   226     1.6   970.2    0.00 
  16    3:00   0.00   47.1    92    0.7   236     2.3   970.2    0.00 
  16    3:10   0.00   47.4    92    0.0   214     0.4   970.2    0.00 
  16    3:20   0.00   47.4    92    1.1   260     1.9   970.2    0.00 
  16    3:30   0.00   47.4    92    0.6   282     2.0   969.9    0.00 
  16    3:40   0.00   47.4    92    1.5   276     3.3   969.9    0.00 
  16    3:50   0.00   46.7    92    0.6   131     1.8   969.9    0.00 
  16    4:00   0.00   46.3    93    1.2   277     2.4   970.2    0.00 
  16    4:10   0.00   46.0    93    0.7   165     1.7   969.9    0.00 
  16    4:20   0.00   46.2    94    0.0   198     0.6   969.9    0.00 
  16    4:30   0.00   46.6    94    0.0     0     0.0   969.9    0.00 
  16    4:40   0.00   46.7    95    0.2   212     2.3   969.9    0.00 
  16    4:50   0.00   47.0    95    2.2   206     3.4   970.2    0.00 
  16    5:00   0.00   46.4    94    0.7   252     2.5   970.2    0.00 
  16    5:10   0.00   45.7    94    0.4   275     1.8   969.9    0.00 
  16    5:20   0.00   45.3    95    0.2   256     1.0   969.9    0.00 
  16    5:30   0.00   45.1    95    0.4   263     1.2   969.9    0.00 
  16    5:40   0.00   45.9    96    0.2   216     1.1   970.2    0.00 
  16    5:50   0.00   46.1    96    1.6   108     3.8   970.2    0.00 
  16    6:00   0.00   46.3    96    0.9    93     2.6   970.2    0.00 
  16    6:10   0.00   46.2    95    2.4   274     3.7   970.5    0.00 
  16    6:20   0.00   44.6    95    1.3   282     2.3   970.5    0.00 
  16    6:30   0.00   43.6    96    2.7   125     3.6   970.5    0.00 
  16    6:40   0.00   43.8    96    2.3   116     3.1   970.9    0.00 
  16    6:50   0.00   44.3    96    1.4   144     2.2   970.9    0.00 
  16    7:00   0.00   45.0    96    1.1   159     2.5   970.9    0.00 
  16    7:10   0.00   45.5    96    1.1   251     1.9   970.9    0.00 
  16    7:20   0.01   45.5    96    0.1   216     1.5   970.9    0.00 
  16    7:30   0.01   45.8    96    0.0   164     0.7   971.2    0.00 
  16    7:40   0.03   46.2    96    0.5   183     1.2   971.2    0.00 
  16    7:50   0.05   47.0    96    0.0   179     0.5   971.2    0.00 
  16    8:00   0.04   47.5    96    1.1   173     1.9   971.6    0.00 
  16    8:10   0.04   47.2    96    1.6   144     3.1   971.6    0.00 
  16    8:20   0.12   47.6    96    0.4   133     1.8   971.9    0.00 
  16    8:30   0.09   48.5    93    1.1   240     2.7   971.9    0.00 
  16    8:40   0.17   48.3    93    1.2    85     1.8   972.2    0.00 
  16    8:50   0.25   50.8    89    0.7   104     2.3   972.2    0.00 
  16    9:00   0.28   53.3    82    0.0    57     0.7   972.2    0.00 
  16    9:10   0.20   53.4    79    0.2   327     1.4   972.6    0.00 
  16    9:20   0.20   53.4    79    0.3   290     1.9   972.6    0.00 
  16    9:30   0.36   54.1    79    1.7   114     2.9   972.6    0.00 
  16    9:40   0.39   55.4    76    0.9    90     2.8   972.9    0.00 
  16    9:50   0.40   56.3    72    1.2   272     2.3   972.9    0.00 
  16   10:00   0.42   57.6    70    2.2   280     3.6   972.9    0.00 
  16   10:10   0.44   59.2    65    3.3   277     4.5   972.9    0.00 
  16   10:20   0.46   59.8    65    4.5   275     6.9   972.9    0.00 
  16   10:30   0.48   59.4    64    4.6   275     6.7   972.9    0.00 
  16   10:40   0.49   59.1    64    4.2   271     5.8   972.9    0.00 
  16   10:50   0.51   59.5    64    4.8   273     6.0   972.6    0.00 
  16   11:00   0.52   61.0    59    4.5   274     5.7   972.6    0.00 
  16   11:10   0.53   61.5    58    4.7   271     6.2   972.2    0.00 
  16   11:20   0.54   62.3    57    3.8   273     5.8   972.2    0.00 
  16   11:30   0.55   60.9    57    3.3   266     4.7   971.9    0.00 
  16   11:40   0.55   61.9    56    2.8   276     4.4   971.9    0.00 
  16   11:50   0.56   62.5    53    1.9   271     3.7   971.6    0.00 
  16   12:00   0.57   63.0    52    2.3   283     4.2   971.2    0.00 
  16   12:10   0.56   63.0    53    3.0   273     5.9   970.9    0.00 
  16   12:20   0.57   65.0    52    3.1   280     7.0   970.9    0.00 
  16   12:30   0.56   65.3    50    4.3   276     7.9   970.5    0.00 
  16   12:40   0.55   64.7    52    4.1   276     6.8   970.5    0.00 
  16   12:50   0.55   66.3    50    4.3   276     6.8   970.5    0.00 
  16   13:00   0.54   66.1    48    4.2   271     7.5   970.2    0.00 
  16   13:10   0.54   64.9    46    4.5   258     7.2   970.2    0.00 
  16   13:20   0.50   65.0    44    5.1   256     8.9   969.9    0.00 
  16   13:30   0.51   64.7    43    3.3   233     7.6   969.9    0.00 
  16   13:40   0.50   65.9    43    4.4   265     7.2   969.9    0.00 
  16   13:50   0.48   66.2    43    4.1   262     8.5   969.9    0.00 
  16   14:00   0.47   66.3    41    4.3   267     9.0   969.9    0.00 
  16   14:10   0.45   67.1    41    4.1   274     8.1   969.9    0.00 
  16   14:20   0.43   68.0    40    3.5   271     5.8   969.5    0.00 
  16   14:30   0.41   66.7    42    3.2   277     7.3   969.5    0.00 
  16   14:40   0.39   66.9    43    1.7   294     6.4   969.5    0.00 
  16   14:50   0.36   66.5    49    2.6   279     6.4   969.5    0.00 
  16   15:00   0.34   66.1    48    2.9   276     7.3   969.5    0.00 
  16   15:10   0.32   65.1    48    1.4   304     5.1   969.5    0.00 
  16   15:20   0.29   64.3    48    2.4   285     6.4   969.5    0.00 
  16   15:30   0.27   63.8    39    2.1   309     8.3   969.5    0.00 
  16   15:40   0.24   62.8    43    3.0   272     8.4   969.5    0.00 
  16   15:50   0.21   62.7    39    1.4   266     4.0   969.5    0.00 
  16   16:00   0.16   60.6    40    1.8   262     5.0   969.5    0.00 
  16   16:10   0.06   58.9    42    1.6   264     4.5   969.5    0.00 
  16   16:20   0.04   59.8    37    2.1   246     4.2   969.5    0.00 
  16   16:30   0.03   59.2    35    2.4   251     3.9   969.9    0.00 
  16   16:40   0.02   59.2    34    3.1   238     5.7   969.9    0.00 
  16   16:50   0.01   57.5    38    2.3   259     5.1   970.2    0.00 
  16   17:00   0.01   56.6    35    0.8   243     4.2   970.2    0.00 
  16   17:10   0.01   56.7    36    2.8   258     7.9   970.2    0.00 
  16   17:20   0.01   55.9    35    1.5   228     4.5   970.2    0.00 
  16   17:30   0.00   55.7    34    1.2    64     3.5   970.2    0.00 
  16   17:40   0.00   56.5    31    0.4   182     1.4   970.5    0.00 
  16   17:50   0.00   55.2    35    1.1   189     2.2   970.5    0.00 
  16   18:00   0.00   53.8    37    2.2   157     4.7   970.5    0.00 
  16   18:10   0.00   52.8    38    4.2   146     7.7   970.2    0.00 
  16   18:20   0.00   55.3    30    3.0   115     6.8   970.2    0.00 
  16   18:30   0.00   56.2    27    1.8    54     5.0   970.5    0.00 
  16   18:40   0.00   56.2    28    1.4   327     3.1   970.5    0.00 
  16   18:50   0.00   54.6    32    2.6   133     4.5   970.5    0.00 
  16   19:00   0.00   55.2    32    2.0   168     4.7   970.5    0.00 
  16   19:10   0.00   55.5    33    2.2   171     4.6   970.5    0.00 
  16   19:20   0.00   55.4    33    2.3   183     5.3   970.5    0.00 
  16   19:30   0.00   53.5    37    3.2   153     5.8   970.5    0.00 
  16   19:40   0.00   54.7    33    1.2   157     3.2   970.5    0.00 
  16   19:50   0.00   55.7    30    1.1   218     4.1   970.5    0.00 
  16   20:00   0.00   55.3    31    1.9   175     4.7   970.9    0.00 

Return to Stunt Ranch Reserve graphs page.


Western Regional Climate Center,wrcc@dri.edu